Mc Allen Miller International Airport Mc Allen US
ICAO: KMFE
IATA: MFE
Category: Medium
Scheduled Services: Yes

Elevation: 107 ft
TransAlt. 18000 ft.

Airport Communications:
VALLEY APP/DEP:121
ASOS:128.5
ATIS:128.5
CTAF:118.5
GND:121.8
SAN ANGELO RDO:122.2
TWR:118.5
UNICOM:122.95

KMFE Zoom In..

If you have problems with the map follow the link
https://www.worldairports.se/pages/airport.php?
ICAO=KMFE

Runways:

(A) RW 13 length 7120 ft width 150 ft
ILS 111.70 / hdg 134

(B) RW 18 length 2638 ft width 60 ft
---- / hdg 182

(C) RW 31 length 7120 ft width 150 ft
ILS 111.70 / hdg 314

(D) RW 36 length 2638 ft width 60 ft
---- / hdg 2

Location; KMFE
Day. 18 / Time. 03.53 Zulu
* Altimeter: 30.09
* Temperature: 20° c. 68°f.
* Wind from: 110° Speed 08 kn.
Dewpoint: 17° c.
Visibility: 10 Statute Miles.
Clouds: Clear (automated report).

KMFE 180353Z 11008KT 10SM CLR 20/17 A3009 RMK AO2 SLP189 T02000172


Wind From 110°
Speed 08 kn.

 
 
jpsmedia worldairports.se 2020   terms of use